Time;durP1;ratioP1;P1;durP2;ratioP2;P2;SDS_P1;SDS_P2;PMS_P1;PMS_P2;Temp;Humidity;BMP_temperature;BMP_pressure;BME280_temperature;BME280_humidity;BME280_pressure;Samples;Min_cycle;Max_cycle;Signal;HPM_P1;HPM_P2
2021/05/22 00:01:48;;;;;;;22.67;11.88;;;;;;;12.93;67.49;99680.91;1797540;78;20961;-56
2021/05/22 00:04:15;;;;;;;23.65;11.83;;;;;;;12.90;67.25;99682.47;1791740;79;21529;-61
2021/05/22 00:09:10;;;;;;;24.32;11.50;;;;;;;12.93;67.12;99680.91;1751920;79;23265;-57
2021/05/22 00:11:37;;;;;;;25.50;11.65;;;;;;;12.86;67.03;99676.84;1699294;82;21531;-59
2021/05/22 00:14:04;;;;;;;23.85;12.68;;;;;;;12.85;67.00;99676.47;1679317;82;21076;-57
2021/05/22 00:16:33;;;;;;;23.55;12.80;;;;;;;12.84;66.95;99676.08;1681749;84;20956;-59
2021/05/22 00:19:00;;;;;;;18.48;11.35;;;;;;;12.81;67.11;99671.71;1681489;84;21535;-59
2021/05/22 00:21:27;;;;;;;25.45;11.95;;;;;;;12.80;67.29;99677.23;1678832;84;20960;-59
2021/05/22 00:23:54;;;;;;;21.85;12.20;;;;;;;12.78;67.35;99673.72;1682823;84;20933;-59
2021/05/22 00:26:21;;;;;;;26.35;12.30;;;;;;;12.76;67.37;99675.66;1678916;84;21059;-58
2021/05/22 00:28:48;;;;;;;28.02;13.15;;;;;;;12.74;67.67;99674.89;1682136;84;21000;-59
2021/05/22 00:31:15;;;;;;;27.17;14.05;;;;;;;12.72;67.92;99670.04;1682519;84;20916;-59
2021/05/22 00:33:41;;;;;;;20.68;11.85;;;;;;;12.67;68.15;99677.08;1676726;84;20940;-58
2021/05/22 00:36:08;;;;;;;26.73;13.43;;;;;;;12.65;68.21;99680.85;1679523;84;20984;-60
2021/05/22 00:38:35;;;;;;;22.62;13.30;;;;;;;12.62;68.23;99682.38;1679463;84;21436;-59
2021/05/22 00:41:02;;;;;;;27.82;13.28;;;;;;;12.59;68.25;99687.02;1682576;84;21543;-60
2021/05/22 00:43:29;;;;;;;28.95;14.55;;;;;;;12.55;68.77;99688.16;1680808;83;20957;-59
2021/05/22 00:45:57;;;;;;;25.48;12.78;;;;;;;12.52;69.15;99686.13;1687565;83;21003;-59
2021/05/22 00:48:24;;;;;;;28.75;13.20;;;;;;;12.49;69.39;99686.30;1682027;84;20976;-59
2021/05/22 00:50:51;;;;;;;26.93;13.78;;;;;;;12.45;69.47;99682.89;1678560;84;21013;-59
2021/05/22 00:53:18;;;;;;;28.83;15.00;;;;;;;12.41;69.82;99675.95;1680818;84;21392;-60
2021/05/22 00:55:46;;;;;;;28.27;13.98;;;;;;;12.37;70.15;99683.84;1686326;84;20960;-58
2021/05/22 00:58:13;;;;;;;24.40;12.70;;;;;;;12.30;70.57;99687.40;1677171;83;21600;-60
2021/05/22 01:00:47;;;;;;;18.45;12.15;;;;;;;12.27;70.82;99689.40;1678621;84;21710;-58
2021/05/22 01:03:33;;;;;;;26.68;13.28;;;;;;;12.25;71.00;99686.80;1678621;83;21053;-59
2021/05/22 01:06:17;;;;;;;23.65;13.00;;;;;;;12.23;71.03;99685.12;1681036;84;20976;-56
2021/05/22 01:08:59;;;;;;;23.05;12.90;;;;;;;12.20;71.51;99679.91;1673438;84;20963;-55
2021/05/22 01:11:32;;;;;;;28.37;15.23;;;;;;;12.18;71.74;99680.46;1695629;83;21447;-55
2021/05/22 01:14:05;;;;;;;34.78;13.60;;;;;;;12.11;72.22;99685.84;1695781;83;20945;-55
2021/05/22 01:16:34;;;;;;;21.75;12.45;;;;;;;12.05;72.40;99690.64;1696761;83;20947;-56
2021/05/22 01:19:02;;;;;;;20.65;13.20;;;;;;;12.01;72.89;99686.36;1698283;83;20988;-55
2021/05/22 01:21:29;;;;;;;26.23;13.15;;;;;;;11.97;73.08;99682.08;1696509;83;20910;-55
2021/05/22 01:24:05;;;;;;;23.45;13.30;;;;;;;11.96;73.48;99685.75;1695777;83;21916;-56
2021/05/22 01:26:32;;;;;;;29.92;13.75;;;;;;;11.91;73.71;99679.73;1694948;83;21445;-56
2021/05/22 01:28:59;;;;;;;25.77;13.43;;;;;;;11.89;74.01;99688.42;1696831;83;21071;-55
2021/05/22 01:31:27;;;;;;;24.77;13.18;;;;;;;11.87;74.21;99688.97;1699383;83;21358;-55
2021/05/22 01:33:54;;;;;;;25.32;12.58;;;;;;;11.85;74.31;99693.59;1694200;83;20941;-55
2021/05/22 01:36:21;;;;;;;20.48;13.35;;;;;;;11.81;74.41;99694.69;1702228;83;21001;-56
2021/05/22 01:38:47;;;;;;;22.70;13.08;;;;;;;11.80;74.75;99701.05;1668930;83;20973;-56
2021/05/22 01:41:15;;;;;;;28.00;12.98;;;;;;;11.78;74.88;99701.15;1704141;83;21045;-55
2021/05/22 01:43:47;;;;;;;25.92;13.45;;;;;;;11.76;74.86;99700.34;1703058;83;20925;-56
2021/05/22 01:46:14;;;;;;;24.10;14.00;;;;;;;11.74;75.14;99696.87;1700926;83;20922;-56
2021/05/22 01:48:41;;;;;;;26.40;13.28;;;;;;;11.72;75.62;99697.93;1698703;83;20945;-56
2021/05/22 01:51:15;;;;;;;26.07;13.90;;;;;;;11.70;75.63;99706.58;1697712;83;20978;-57
2021/05/22 01:53:44;;;;;;;24.98;13.38;;;;;;;11.68;75.96;99709.85;1681972;83;21018;-57
2021/05/22 01:56:11;;;;;;;20.30;12.40;;;;;;;11.65;76.12;99708.66;1665575;83;20978;-57
2021/05/22 01:58:38;;;;;;;23.67;12.78;;;;;;;11.64;76.25;99711.84;1698651;83;20938;-57
2021/05/22 02:01:05;;;;;;;18.90;11.48;;;;;;;11.62;76.49;99707.50;1696732;83;20977;-56
2021/05/22 02:03:40;;;;;;;21.60;12.82;;;;;;;11.60;76.77;99707.56;1695451;82;20973;-57
2021/05/22 02:06:15;;;;;;;22.40;12.73;;;;;;;11.58;76.98;99709.48;1694430;83;21062;-56
2021/05/22 02:08:44;;;;;;;21.05;12.05;;;;;;;11.57;77.18;99709.58;1678818;83;20952;-57
2021/05/22 02:11:12;;;;;;;26.07;11.95;;;;;;;11.55;77.23;99715.91;1665743;85;21395;-56
2021/05/22 02:13:39;;;;;;;25.35;12.85;;;;;;;11.60;77.28;99717.49;1665847;83;20966;-57
2021/05/22 02:16:06;;;;;;;20.35;12.07;;;;;;;11.65;77.29;99718.11;1663337;85;20937;-56
2021/05/22 02:18:34;;;;;;;20.88;11.68;;;;;;;11.75;77.30;99721.58;1669199;85;21045;-56
2021/05/22 02:21:02;;;;;;;19.05;11.25;;;;;;;11.87;77.24;99714.63;1665376;83;20976;-56
2021/05/22 02:23:30;;;;;;;28.15;12.23;;;;;;;11.99;77.09;99720.73;1667466;84;20965;-57
2021/05/22 02:25:57;;;;;;;20.90;11.28;;;;;;;12.10;77.03;99709.78;1679929;84;21013;-56
2021/05/22 02:28:33;;;;;;;27.20;12.50;;;;;;;12.22;76.83;99713.13;1677106;84;20961;-57
2021/05/22 02:31:00;;;;;;;29.35;12.95;;;;;;;12.32;76.64;99708.94;1670181;83;21065;-56
2021/05/22 02:33:27;;;;;;;25.17;12.07;;;;;;;12.45;76.30;99708.59;1668664;84;21584;-56
2021/05/22 02:35:54;;;;;;;22.48;11.40;;;;;;;12.56;75.94;99708.83;1670018;83;20922;-56
2021/05/22 02:38:25;;;;;;;23.22;11.63;;;;;;;12.68;75.54;99711.31;1667270;84;21556;-55
2021/05/22 02:40:58;;;;;;;25.95;12.63;;;;;;;12.79;75.31;99712.89;1674825;85;21489;-56
2021/05/22 02:43:25;;;;;;;16.77;11.10;;;;;;;12.77;74.81;99720.70;1666384;85;21635;-56
2021/05/22 02:45:52;;;;;;;20.50;12.35;;;;;;;12.65;74.83;99722.30;1661607;85;20914;-55
2021/05/22 02:48:19;;;;;;;22.15;11.65;;;;;;;12.54;74.96;99727.00;1662834;85;20901;-56
2021/05/22 02:50:50;;;;;;;20.45;11.33;;;;;;;12.44;75.03;99729.84;1668837;85;21007;-55
2021/05/22 02:53:19;;;;;;;18.80;10.93;;;;;;;12.37;75.17;99728.47;1679381;83;21569;-55
2021/05/22 02:55:48;;;;;;;18.98;10.68;;;;;;;12.32;75.41;99728.73;1664216;83;20970;-56
2021/05/22 02:58:15;;;;;;;19.65;11.40;;;;;;;12.27;75.54;99728.13;1658513;84;20957;-56
2021/05/22 03:00:42;;;;;;;19.45;10.82;;;;;;;12.25;75.71;99734.56;1673246;84;21738;-56
2021/05/22 03:03:09;;;;;;;16.70;10.15;;;;;;;12.23;75.90;99747.31;1670323;83;20952;-56
2021/05/22 03:05:36;;;;;;;21.33;10.05;;;;;;;12.21;76.16;99751.95;1671622;83;21028;-55
2021/05/22 03:08:05;;;;;;;13.05;9.45;;;;;;;12.18;76.46;99751.63;1649875;85;21677;-56
2021/05/22 03:10:32;;;;;;;18.57;10.35;;;;;;;12.16;76.72;99751.33;1657846;85;21676;-55
2021/05/22 03:12:59;;;;;;;23.77;14.00;;;;;;;12.14;76.98;99757.29;1658520;85;20945;-56
2021/05/22 03:15:26;;;;;;;23.35;11.03;;;;;;;12.14;77.23;99755.94;1657899;85;21478;-56
2021/05/22 03:17:53;;;;;;;18.67;10.23;;;;;;;12.16;77.47;99762.15;1671418;84;20961;-56
2021/05/22 03:20:20;;;;;;;21.12;10.20;;;;;;;12.20;77.55;99766.43;1658055;85;21074;-55
2021/05/22 03:22:47;;;;;;;15.65;9.53;;;;;;;12.22;77.66;99764.50;1673594;84;20913;-56
2021/05/22 03:25:14;;;;;;;17.15;9.75;;;;;;;12.26;77.78;99763.38;1659080;85;20961;-56
2021/05/22 03:27:41;;;;;;;12.00;9.20;;;;;;;12.34;77.75;99771.91;1672617;84;20988;-55
2021/05/22 03:30:09;;;;;;;19.65;10.43;;;;;;;12.46;77.73;99768.48;1674672;84;20996;-56
2021/05/22 03:32:35;;;;;;;15.53;9.33;;;;;;;12.75;77.44;99776.27;1661400;85;21064;-57
2021/05/22 03:35:04;;;;;;;20.25;9.73;;;;;;;13.13;76.73;99765.48;1671493;84;20953;-56
2021/05/22 03:37:31;;;;;;;15.48;8.88;;;;;;;13.50;75.66;99770.90;1671697;83;20909;-57
2021/05/22 03:39:58;;;;;;;19.17;9.08;;;;;;;13.59;75.10;99772.56;1659869;85;21544;-56
2021/05/22 03:42:25;;;;;;;18.92;9.70;;;;;;;13.60;74.92;99774.30;1674181;84;20933;-55
2021/05/22 03:44:52;;;;;;;17.65;8.53;;;;;;;13.63;74.76;99770.05;1658683;85;21527;-56
2021/05/22 03:47:19;;;;;;;14.93;8.13;;;;;;;13.72;74.47;99779.91;1670619;84;20929;-55
2021/05/22 03:49:46;;;;;;;16.00;7.58;;;;;;;13.92;73.87;99776.82;1679279;84;21481;-55
2021/05/22 03:52:13;;;;;;;10.03;7.25;;;;;;;14.22;72.40;99773.98;1674879;84;20969;-56
2021/05/22 03:54:41;;;;;;;12.78;6.10;;;;;;;14.61;70.85;99778.66;1679464;83;21576;-56
2021/05/22 03:57:08;;;;;;;6.47;5.20;;;;;;;15.02;68.86;99775.02;1659627;84;21065;-56
2021/05/22 03:59:34;;;;;;;8.83;6.22;;;;;;;15.47;66.68;99780.95;1673072;83;20921;-55
2021/05/22 04:02:01;;;;;;;9.70;5.35;;;;;;;15.88;64.24;99781.27;1677338;84;20933;-56
2021/05/22 04:04:28;;;;;;;8.73;5.08;;;;;;;16.19;62.15;99784.88;1678679;84;20957;-57
2021/05/22 04:06:55;;;;;;;7.87;4.62;;;;;;;16.45;60.84;99787.50;1672992;84;21015;-56
2021/05/22 04:09:22;;;;;;;8.43;4.60;;;;;;;16.75;59.50;99787.98;1658859;85;21577;-58
2021/05/22 04:11:50;;;;;;;7.08;4.37;;;;;;;17.02;58.68;99789.11;1675450;83;20976;-55
2021/05/22 04:14:17;;;;;;;7.65;4.25;;;;;;;17.33;57.11;99792.70;1670966;84;20897;-53
2021/05/22 04:16:45;;;;;;;9.65;4.65;;;;;;;17.62;55.72;99791.77;1674447;83;20972;-55
2021/05/22 04:19:12;;;;;;;7.10;3.85;;;;;;;17.91;54.51;99796.33;1674691;84;21130;-55
2021/05/22 04:21:39;;;;;;;6.80;3.85;;;;;;;18.14;53.96;99808.98;1675615;83;21133;-54
2021/05/22 04:24:08;;;;;;;6.25;3.60;;;;;;;18.41;53.27;99808.59;1672247;84;20957;-55
2021/05/22 04:26:35;;;;;;;7.78;4.08;;;;;;;18.66;52.25;99809.32;1677498;84;21461;-54
2021/05/22 04:29:02;;;;;;;6.33;3.62;;;;;;;18.78;51.69;99806.45;1674350;83;20981;-55
2021/05/22 04:31:29;;;;;;;8.65;4.28;;;;;;;18.88;51.69;99797.50;1673107;83;21145;-55
2021/05/22 04:33:56;;;;;;;6.03;3.83;;;;;;;18.95;51.41;99805.54;1672088;84;21645;-54
2021/05/22 04:36:23;;;;;;;10.45;4.05;;;;;;;18.84;50.85;99805.94;1674702;84;21008;-55
2021/05/22 04:38:51;;;;;;;8.95;4.30;;;;;;;18.58;51.24;99804.47;1672531;84;21493;-54
2021/05/22 04:41:19;;;;;;;8.60;4.58;;;;;;;18.30;51.82;99813.57;1673876;83;21040;-54
2021/05/22 04:43:46;;;;;;;8.78;4.90;;;;;;;17.97;52.50;99801.29;1671958;84;20920;-53
2021/05/22 04:46:13;;;;;;;6.58;5.55;;;;;;;17.67;53.12;99805.41;1675866;83;21044;-58
2021/05/22 04:48:40;;;;;;;7.85;4.58;;;;;;;17.41;53.69;99798.41;1672563;84;21676;-55
2021/05/22 04:51:09;;;;;;;8.53;4.40;;;;;;;17.17;54.52;99803.41;1672651;84;21884;-55
2021/05/22 04:53:36;;;;;;;7.45;4.28;;;;;;;17.00;54.83;99809.30;1676266;84;21016;-56
2021/05/22 04:56:03;;;;;;;8.73;4.53;;;;;;;16.82;55.40;99809.30;1671145;84;20992;-54
2021/05/22 04:58:30;;;;;;;10.00;4.30;;;;;;;16.68;56.02;99808.47;1674364;83;21098;-56
2021/05/22 05:00:57;;;;;;;9.30;3.87;;;;;;;16.60;56.56;99799.98;1675553;84;20985;-59
2021/05/22 05:03:24;;;;;;;5.83;3.85;;;;;;;16.53;56.86;99812.81;1677472;84;20964;-54
2021/05/22 05:05:51;;;;;;;6.12;4.45;;;;;;;16.42;57.06;99812.25;1674370;83;20952;-55
2021/05/22 05:08:18;;;;;;;7.15;3.87;;;;;;;16.36;57.59;99819.51;1671851;84;21000;-56
2021/05/22 05:10:46;;;;;;;9.35;4.60;;;;;;;16.34;58.21;99818.73;1671021;83;21792;-55
2021/05/22 05:13:14;;;;;;;8.23;4.33;;;;;;;16.30;58.49;99815.84;1676530;84;20956;-55
2021/05/22 05:15:42;;;;;;;9.03;4.25;;;;;;;16.28;58.81;99815.09;1678989;84;21095;-55
2021/05/22 05:18:10;;;;;;;9.33;4.40;;;;;;;16.29;58.78;99819.55;1671643;83;20976;-54
2021/05/22 05:20:37;;;;;;;6.22;3.67;;;;;;;16.29;58.49;99816.83;1675979;83;20965;-55
2021/05/22 05:23:05;;;;;;;5.95;3.98;;;;;;;16.33;58.59;99821.08;1674650;84;21051;-54
2021/05/22 05:25:32;;;;;;;7.25;3.98;;;;;;;16.39;58.58;99823.34;1670477;84;20980;-56
2021/05/22 05:27:59;;;;;;;6.20;3.87;;;;;;;16.45;58.32;99820.17;1674519;83;21627;-56
2021/05/22 05:30:26;;;;;;;5.92;3.85;;;;;;;16.50;58.48;99823.42;1673998;84;20976;-50
2021/05/22 05:32:54;;;;;;;10.58;3.72;;;;;;;16.53;57.84;99820.49;1671185;84;20944;-49
2021/05/22 05:43:52;;;;;;;5.30;3.47;;;;;;;16.87;57.66;99818.87;1782864;78;20916;-51
2021/05/22 05:46:20;;;;;;;6.92;3.95;;;;;;;17.04;57.45;99824.40;1780121;80;21010;-50
2021/05/22 05:48:48;;;;;;;4.22;3.58;;;;;;;17.26;56.60;99827.75;1777762;80;21095;-50
2021/05/22 05:51:15;;;;;;;3.37;3.00;;;;;;;17.50;55.53;99829.05;1780080;80;20952;-51
2021/05/22 05:53:42;;;;;;;5.70;3.37;;;;;;;17.82;55.12;99833.89;1779803;80;20936;-50
2021/05/22 05:56:09;;;;;;;3.33;3.02;;;;;;;18.17;54.55;99840.14;1779412;80;21000;-50
2021/05/22 05:58:36;;;;;;;5.12;3.27;;;;;;;18.45;54.03;99850.19;1779391;80;20966;-51
2021/05/22 06:01:07;;;;;;;7.28;3.20;;;;;;;18.72;53.60;99853.42;1780153;80;21055;-51
2021/05/22 06:03:32;;;;;;;4.85;3.15;;;;;;;18.90;52.58;99858.34;1778195;79;21505;-50
2021/05/22 06:05:59;;;;;;;6.47;3.22;;;;;;;19.10;51.64;99854.32;1780215;79;20980;-51
2021/05/22 06:08:26;;;;;;;3.22;2.40;;;;;;;19.40;51.06;99853.24;1778433;80;21623;-50
2021/05/22 06:10:54;;;;;;;9.05;3.12;;;;;;;19.50;49.94;99856.93;1776724;79;21206;-51
2021/05/22 06:13:30;;;;;;;6.95;3.17;;;;;;;19.58;49.31;99859.86;1778816;80;21093;-51
2021/05/22 06:18:35;;;;;;;5.50;4.15;;;;;;;19.56;49.02;99867.34;1779138;80;20980;-51
2021/05/22 06:21:02;;;;;;;4.40;3.08;;;;;;;19.40;48.90;99866.91;1778937;80;21047;-51
2021/05/22 06:23:29;;;;;;;5.42;3.30;;;;;;;19.23;49.06;99869.22;1779437;80;20949;-50
2021/05/22 06:25:58;;;;;;;3.62;3.08;;;;;;;19.13;49.27;99872.35;1778676;80;21612;-51
2021/05/22 06:28:25;;;;;;;5.50;3.00;;;;;;;19.05;49.35;99873.47;1778592;80;20984;-51
2021/05/22 06:30:55;;;;;;;6.78;3.25;;;;;;;19.04;49.79;99875.84;1779447;79;21561;-50
2021/05/22 06:33:22;;;;;;;4.40;2.92;;;;;;;19.02;49.93;99875.98;1779150;80;21489;-50
2021/05/22 06:35:49;;;;;;;6.12;3.40;;;;;;;19.03;49.92;99880.95;1779010;80;20956;-51
2021/05/22 06:38:16;;;;;;;8.28;3.58;;;;;;;19.03;50.28;99886.41;1776398;80;21072;-51
2021/05/22 06:40:45;;;;;;;5.37;3.55;;;;;;;19.01;50.14;99886.52;1777242;79;21107;-49
2021/05/22 06:43:12;;;;;;;5.42;4.00;;;;;;;19.05;50.25;99892.61;1773035;79;20961;-52
2021/05/22 06:45:45;;;;;;;8.58;4.10;;;;;;;19.28;49.58;99886.11;1773534;80;21083;-50
2021/05/22 06:48:10;;;;;;;7.00;4.03;;;;;;;19.64;48.91;99883.98;1773402;80;20921;-53
2021/05/22 06:50:37;;;;;;;9.95;3.10;;;;;;;19.94;48.11;99879.61;1775291;80;21023;-50
2021/05/22 06:53:05;;;;;;;4.35;3.08;;;;;;;20.20;47.49;99882.80;1774279;80;20948;-51
2021/05/22 06:55:32;;;;;;;7.05;2.80;;;;;;;20.34;47.18;99885.16;1775324;80;20933;-51
2021/05/22 06:58:00;;;;;;;4.40;3.50;;;;;;;20.37;46.83;99874.81;1774969;80;20895;-51
2021/05/22 07:00:27;;;;;;;7.22;2.65;;;;;;;20.35;47.10;99886.42;1772999;80;20917;-53
2021/05/22 07:02:54;;;;;;;6.28;2.92;;;;;;;20.38;46.65;99879.28;1773220;80;21078;-51
2021/05/22 07:05:21;;;;;;;5.05;2.50;;;;;;;20.36;46.16;99885.41;1773834;79;20953;-55
2021/05/22 07:07:48;;;;;;;5.87;2.27;;;;;;;20.27;46.35;99876.64;1774753;80;21452;-52
2021/05/22 07:10:16;;;;;;;4.53;2.47;;;;;;;20.22;46.01;99878.91;1771435;79;21016;-60
2021/05/22 07:12:43;;;;;;;2.98;2.10;;;;;;;20.18;44.69;99875.20;1768049;80;21588;-57
2021/05/22 07:15:11;;;;;;;3.33;2.10;;;;;;;19.99;43.93;99877.34;1772506;79;21043;-59
2021/05/22 07:17:39;;;;;;;2.52;1.90;;;;;;;19.82;44.19;99867.36;1773201;79;21012;-55
2021/05/22 07:20:08;;;;;;;4.95;2.00;;;;;;;19.76;44.58;99861.52;1773077;80;20952;-58
2021/05/22 07:22:35;;;;;;;4.35;2.15;;;;;;;19.77;44.20;99862.78;1773085;80;20964;-55
2021/05/22 07:25:03;;;;;;;3.27;2.12;;;;;;;19.81;44.40;99861.49;1773148;79;20921;-56
2021/05/22 07:27:34;;;;;;;6.17;1.65;;;;;;;19.88;43.54;99858.61;1774239;80;21016;-52
2021/05/22 07:29:58;;;;;;;3.67;1.80;;;;;;;19.86;43.50;99856.48;1773367;79;20976;-57
2021/05/22 07:32:25;;;;;;;2.75;1.70;;;;;;;19.84;43.30;99855.77;1773340;80;21639;-51
2021/05/22 07:34:52;;;;;;;7.55;1.87;;;;;;;19.81;42.50;99846.44;1773684;79;21695;-54
2021/05/22 07:37:19;;;;;;;3.00;1.42;;;;;;;19.81;41.80;99849.17;1775060;80;21231;-54
2021/05/22 07:39:45;;;;;;;8.53;1.80;;;;;;;19.86;42.05;99853.75;1774310;80;21041;-54
2021/05/22 07:42:12;;;;;;;5.28;1.98;;;;;;;19.95;41.84;99843.02;1773604;80;20968;-53
2021/05/22 07:44:39;;;;;;;4.17;1.65;;;;;;;20.02;41.23;99841.46;1767635;79;21016;-52
2021/05/22 07:47:07;;;;;;;2.45;1.67;;;;;;;20.06;40.88;99853.89;1765913;79;20957;-55
2021/05/22 07:49:37;;;;;;;4.08;1.60;;;;;;;20.05;40.85;99843.94;1766234;79;21564;-55
2021/05/22 07:52:07;;;;;;;;;;;;;;;20.06;40.54;99851.15;1768597;81;20937;-53
2021/05/22 07:54:35;;;;;;;4.62;1.27;;;;;;;20.07;40.35;99853.73;1766279;81;20169;-54
2021/05/22 07:57:04;;;;;;;3.35;1.70;;;;;;;20.08;39.82;99844.55;1767003;79;21009;-55
2021/05/22 07:59:33;;;;;;;3.92;1.50;;;;;;;20.13;40.08;99849.59;1747302;79;20981;-54
2021/05/22 08:02:00;;;;;;;2.65;1.80;;;;;;;20.18;40.01;99845.08;1764859;79;20968;-54
2021/05/22 08:04:27;;;;;;;1.85;1.35;;;;;;;20.21;40.35;99840.21;1764929;79;21623;-53
2021/05/22 08:06:54;;;;;;;3.77;1.67;;;;;;;20.25;39.42;99841.68;1765518;81;21257;-58
2021/05/22 08:09:21;;;;;;;2.58;1.55;;;;;;;20.27;40.00;99846.50;1765975;81;20938;-60
2021/05/22 08:11:48;;;;;;;1.82;1.05;;;;;;;20.33;39.80;99843.22;1766148;81;20938;-60
2021/05/22 08:14:15;;;;;;;1.87;1.30;;;;;;;20.43;39.82;99834.18;1765088;79;21021;-62
2021/05/22 08:16:42;;;;;;;1.67;1.10;;;;;;;20.51;39.23;99833.03;1765359;79;21039;-60
2021/05/22 08:19:13;;;;;;;4.30;1.07;;;;;;;20.55;38.68;99838.58;1764642;81;20949;-61
2021/05/22 08:21:42;;;;;;;3.08;1.30;;;;;;;20.57;38.71;99839.33;1761264;79;21036;-56
2021/05/22 08:24:10;;;;;;;6.72;1.80;;;;;;;20.62;38.64;99830.19;1765242;79;20909;-60
2021/05/22 08:26:38;;;;;;;4.42;1.27;;;;;;;20.65;38.28;99828.52;1765314;79;20925;-54
2021/05/22 08:29:05;;;;;;;3.17;2.05;;;;;;;20.69;38.22;99819.02;1764767;81;21037;-60
2021/05/22 08:31:33;;;;;;;4.75;1.30;;;;;;;20.75;37.86;99828.05;1765899;79;21390;-60
2021/05/22 08:34:00;;;;;;;4.33;1.10;;;;;;;20.77;37.18;99832.87;1763570;81;21461;-58
2021/05/22 08:36:28;;;;;;;3.35;1.10;;;;;;;20.79;37.20;99836.36;1764156;81;20957;-60
2021/05/22 08:38:56;;;;;;;2.35;1.35;;;;;;;20.85;35.97;99831.68;1765582;81;20957;-56
2021/05/22 08:41:23;;;;;;;3.75;1.22;;;;;;;20.87;35.68;99833.77;1765614;81;21428;-57
2021/05/22 08:43:50;;;;;;;3.50;0.93;;;;;;;20.87;36.27;99826.05;1771195;80;20889;-55
2021/05/22 08:46:18;;;;;;;2.35;0.90;;;;;;;20.87;36.32;99817.31;1771914;79;20905;-58
2021/05/22 08:48:49;;;;;;;1.87;1.40;;;;;;;20.89;35.04;99818.06;1774356;79;21544;-56
2021/05/22 08:54:56;;;;;;;2.25;1.47;;;;;;;20.98;35.91;99803.13;1747430;78;22432;-57
2021/05/22 08:57:23;;;;;;;5.00;1.57;;;;;;;20.94;36.25;99801.19;1717653;82;21008;-57
2021/05/22 08:59:49;;;;;;;4.20;2.00;;;;;;;21.02;36.14;99798.59;1716402;83;21033;-50
2021/05/22 09:02:23;;;;;;;3.33;1.50;;;;;;;21.03;35.93;99800.82;1714745;82;20974;-58
2021/05/22 09:05:23;;;;;;;4.70;1.42;;;;;;;21.03;35.87;99796.70;1716225;83;21033;-59
2021/05/22 09:07:58;;;;;;;9.80;1.40;;;;;;;21.05;35.80;99791.45;1716555;82;21100;-57
2021/05/22 09:10:38;;;;;;;3.40;1.75;;;;;;;21.04;34.29;99793.84;1716171;82;20938;-59
2021/05/22 09:13:10;;;;;;;3.08;1.42;;;;;;;21.05;34.44;99799.69;1716336;82;21076;-59
2021/05/22 09:15:41;;;;;;;2.60;1.40;;;;;;;21.11;34.58;99797.73;1717148;82;20925;-57
2021/05/22 09:18:15;;;;;;;4.63;1.23;;;;;;;21.19;35.07;99794.27;1716759;82;20941;-56
2021/05/22 09:20:51;;;;;;;7.30;1.90;;;;;;;21.30;35.41;99802.37;1715601;82;21682;-51
2021/05/22 09:23:28;;;;;;;4.97;1.32;;;;;;;21.36;35.49;99798.19;1716409;82;20999;-57
2021/05/22 09:26:05;;;;;;;3.42;2.00;;;;;;;21.37;35.61;99781.60;1716059;82;21073;-56
2021/05/22 09:28:39;;;;;;;4.03;1.67;;;;;;;21.40;35.43;99779.06;1716015;83;21046;-56
2021/05/22 09:31:10;;;;;;;3.30;1.35;;;;;;;21.41;35.18;99783.05;1715367;82;20950;-56
2021/05/22 09:33:36;;;;;;;4.45;1.50;;;;;;;21.41;35.03;99774.82;1715776;83;20979;-56
2021/05/22 09:36:11;;;;;;;4.75;1.45;;;;;;;21.41;35.05;99777.56;1716380;82;20934;-56
2021/05/22 09:38:50;;;;;;;3.92;1.62;;;;;;;21.43;35.38;99772.78;1715993;82;21107;-56
2021/05/22 09:41:24;;;;;;;8.85;1.60;;;;;;;21.46;35.08;99778.47;1715601;82;21494;-55
2021/05/22 09:44:17;;;;;;;2.47;1.20;;;;;;;21.45;34.79;99772.13;1715801;83;20917;-55
2021/05/22 09:46:53;;;;;;;2.80;1.35;;;;;;;21.43;34.37;99770.04;1715488;82;21442;-54
2021/05/22 09:49:26;;;;;;;6.65;1.42;;;;;;;21.41;34.54;99775.30;1716246;83;20953;-55
2021/05/22 09:52:03;;;;;;;9.23;1.30;;;;;;;21.39;34.44;99768.59;1715958;82;21125;-56
2021/05/22 09:54:58;;;;;;;5.25;1.80;;;;;;;21.37;34.70;99762.91;1706728;82;21450;-54
2021/05/22 09:57:42;;;;;;;4.03;1.52;;;;;;;21.38;34.67;99765.50;1610484;87;20976;-56
2021/05/22 10:00:15;;;;;;;6.50;1.82;;;;;;;21.43;34.78;99767.80;1692776;84;21009;-56
2021/05/22 10:02:51;;;;;;;5.45;1.75;;;;;;;21.47;34.87;99756.05;1703823;82;20993;-54
2021/05/22 10:05:30;;;;;;;2.08;1.70;;;;;;;21.53;34.72;99758.20;1703400;82;21736;-55
2021/05/22 10:07:58;;;;;;;1.95;1.37;;;;;;;21.58;34.33;99757.25;1703508;83;20946;-55
2021/05/22 10:10:49;;;;;;;3.58;1.10;;;;;;;21.59;34.10;99756.23;1702896;82;21063;-55
2021/05/22 10:13:15;;;;;;;5.25;1.47;;;;;;;21.60;33.84;99742.86;1703902;83;21029;-56
2021/05/22 10:15:42;;;;;;;5.30;1.85;;;;;;;21.66;34.14;99749.13;1703670;82;21081;-55
2021/05/22 10:18:09;;;;;;;5.58;1.30;;;;;;;21.71;34.59;99745.42;1702813;83;21055;-56
2021/05/22 10:20:37;;;;;;;4.83;2.45;;;;;;;21.72;34.88;99747.16;1702764;82;20994;-55
2021/05/22 10:23:05;;;;;;;3.58;1.45;;;;;;;21.75;35.19;99744.13;1703022;83;21506;-55
2021/05/22 10:25:32;;;;;;;3.87;1.60;;;;;;;21.81;34.96;99731.17;1703782;82;21653;-56
2021/05/22 10:27:59;;;;;;;5.35;1.20;;;;;;;21.85;34.43;99729.86;1702140;83;21527;-56
2021/05/22 10:30:26;;;;;;;2.95;1.05;;;;;;;21.85;34.02;99728.48;1702919;82;20993;-54
2021/05/22 10:33:05;;;;;;;4.22;1.60;;;;;;;21.78;34.09;99727.33;1704512;83;21620;-56
2021/05/22 10:35:51;;;;;;;3.08;1.27;;;;;;;21.74;34.31;99723.18;1702890;82;20966;-57
2021/05/22 10:38:41;;;;;;;6.10;1.47;;;;;;;21.71;34.31;99716.60;1703167;83;21649;-54
2021/05/22 10:41:12;;;;;;;2.42;1.55;;;;;;;21.69;33.91;99717.27;1703843;82;20898;-56
2021/05/22 10:43:55;;;;;;;;;;;;;;;21.64;34.18;99714.11;1704789;83;21027;-55
2021/05/22 10:46:22;;;;;;;2.65;1.07;;;;;;;21.65;34.26;99702.97;1703119;82;20180;-56
2021/05/22 10:49:02;;;;;;;5.60;1.52;;;;;;;21.64;33.95;99689.41;1702852;83;21005;-56
2021/05/22 10:51:37;;;;;;;5.15;1.27;;;;;;;21.64;34.26;99700.38;1703403;82;20894;-56
2021/05/22 10:54:17;;;;;;;3.25;1.60;;;;;;;21.70;34.42;99691.55;1704285;83;20954;-57
2021/05/22 10:57:09;;;;;;;2.20;1.40;;;;;;;21.73;34.20;99691.23;1711784;82;21071;-55
2021/05/22 10:59:33;;;;;;;4.00;1.42;;;;;;;21.75;33.89;99689.22;1709778;83;21005;-55
2021/05/22 11:02:01;;;;;;;4.65;1.82;;;;;;;21.77;34.03;99687.17;1711342;82;21009;-55
2021/05/22 11:04:28;;;;;;;4.97;1.45;;;;;;;21.81;34.28;99684.49;1711193;83;21061;-55
2021/05/22 11:07:12;;;;;;;4.00;1.42;;;;;;;21.88;34.09;99676.00;1711200;82;20898;-55
2021/05/22 11:09:41;;;;;;;3.72;1.42;;;;;;;21.89;34.02;99677.75;1708447;83;21270;-55
2021/05/22 11:12:28;;;;;;;3.08;1.27;;;;;;;21.91;33.93;99668.84;1711435;82;20906;-55
2021/05/22 11:14:53;;;;;;;4.70;1.50;;;;;;;21.91;33.70;99667.47;1711350;83;20942;-55
2021/05/22 11:17:26;;;;;;;2.50;1.50;;;;;;;21.91;33.99;99672.10;1711038;82;20945;-54
2021/05/22 11:20:07;;;;;;;5.60;1.40;;;;;;;21.93;34.19;99672.80;1711445;83;20956;-56
2021/05/22 11:22:46;;;;;;;2.10;1.40;;;;;;;22.02;33.96;99668.30;1710992;82;21071;-55
2021/05/22 11:25:15;;;;;;;4.08;1.07;;;;;;;22.09;33.05;99668.03;1711007;83;20938;-54
2021/05/22 11:28:00;;;;;;;4.22;1.30;;;;;;;22.12;32.96;99655.41;1711465;82;21487;-56
2021/05/22 11:30:36;;;;;;;1.95;1.10;;;;;;;22.12;33.20;99652.66;1710314;82;20979;-55
2021/05/22 11:33:09;;;;;;;4.20;1.65;;;;;;;22.15;33.22;99655.08;1711774;83;20962;-55
2021/05/22 11:35:45;;;;;;;4.45;1.60;;;;;;;22.22;33.46;99656.22;1711291;82;21506;-56
2021/05/22 11:38:25;;;;;;;2.08;1.00;;;;;;;22.29;33.66;99657.32;1711418;83;20961;-57
2021/05/22 11:40:53;;;;;;;2.15;1.02;;;;;;;22.34;33.85;99652.22;1710911;82;20946;-54
2021/05/22 11:43:31;;;;;;;6.55;1.85;;;;;;;22.37;33.90;99651.03;1711757;83;21493;-55
2021/05/22 11:46:06;;;;;;;1.52;1.22;;;;;;;22.39;34.13;99659.50;1711348;82;21770;-54
2021/05/22 11:48:52;;;;;;;5.20;1.50;;;;;;;22.40;33.76;99652.11;1706247;83;21358;-55
2021/05/22 11:51:31;;;;;;;1.40;1.05;;;;;;;22.36;33.52;99657.05;1711622;82;20978;-54
2021/05/22 11:54:03;;;;;;;1.40;1.10;;;;;;;22.29;33.62;99658.69;1709228;83;21017;-56
2021/05/22 11:56:33;;;;;;;4.25;1.05;;;;;;;22.21;33.61;99659.95;1703322;82;20934;-54
2021/05/22 11:59:00;;;;;;;3.02;1.27;;;;;;;22.13;33.89;99655.75;1703177;83;20937;-55